sensor_id;sensor_type;location;lat;lon;timestamp;pressure;altitude;pressure_sealevel;temperature;humidity
22651;BME280;11492;42.646;23.400;2023-05-10T00:02:25;95318.28;;;10.51;85.16
22651;BME280;11492;42.646;23.400;2023-05-10T00:04:50;95330.16;;;10.60;85.16
22651;BME280;11492;42.646;23.400;2023-05-10T00:07:16;95324.75;;;10.47;82.92
22651;BME280;11492;42.646;23.400;2023-05-10T00:09:43;95328.03;;;10.42;83.90
22651;BME280;11492;42.646;23.400;2023-05-10T00:12:08;95324.25;;;10.22;82.83
22651;BME280;11492;42.646;23.400;2023-05-10T00:14:34;95325.84;;;10.23;83.25
22651;BME280;11492;42.646;23.400;2023-05-10T00:16:59;95312.66;;;10.18;83.24
22651;BME280;11492;42.646;23.400;2023-05-10T00:19:32;95319.41;;;10.19;84.16
22651;BME280;11492;42.646;23.400;2023-05-10T00:21:58;95311.25;;;10.08;84.02
22651;BME280;11492;42.646;23.400;2023-05-10T00:24:23;95321.56;;;10.16;84.59
22651;BME280;11492;42.646;23.400;2023-05-10T00:26:49;95315.09;;;10.12;84.82
22651;BME280;11492;42.646;23.400;2023-05-10T00:29:15;95313.00;;;10.15;84.76
22651;BME280;11492;42.646;23.400;2023-05-10T00:31:40;95315.41;;;10.17;85.39
22651;BME280;11492;42.646;23.400;2023-05-10T00:34:06;95314.91;;;10.21;84.52
22651;BME280;11492;42.646;23.400;2023-05-10T00:36:31;95321.34;;;10.25;83.83
22651;BME280;11492;42.646;23.400;2023-05-10T00:38:57;95313.94;;;10.22;83.53
22651;BME280;11492;42.646;23.400;2023-05-10T00:41:22;95310.72;;;10.20;83.89
22651;BME280;11492;42.646;23.400;2023-05-10T00:43:48;95309.16;;;10.11;82.14
22651;BME280;11492;42.646;23.400;2023-05-10T00:46:15;95317.88;;;10.10;82.86
22651;BME280;11492;42.646;23.400;2023-05-10T00:48:41;95301.41;;;10.11;83.47
22651;BME280;11492;42.646;23.400;2023-05-10T00:51:07;95309.78;;;10.13;83.61
22651;BME280;11492;42.646;23.400;2023-05-10T00:53:33;95309.31;;;10.10;83.35
22651;BME280;11492;42.646;23.400;2023-05-10T00:55:59;95303.50;;;10.08;83.15
22651;BME280;11492;42.646;23.400;2023-05-10T00:58:25;95301.97;;;9.99;82.90
22651;BME280;11492;42.646;23.400;2023-05-10T01:00:54;95307.28;;;9.97;83.23
22651;BME280;11492;42.646;23.400;2023-05-10T01:03:21;95306.03;;;9.94;82.41
22651;BME280;11492;42.646;23.400;2023-05-10T01:05:47;95304.72;;;9.82;82.19
22651;BME280;11492;42.646;23.400;2023-05-10T01:08:12;95308.28;;;9.81;82.71
22651;BME280;11492;42.646;23.400;2023-05-10T01:10:38;95301.84;;;9.77;82.66
22651;BME280;11492;42.646;23.400;2023-05-10T01:13:03;95297.16;;;9.88;83.01
22651;BME280;11492;42.646;23.400;2023-05-10T01:15:29;95303.13;;;9.81;81.92
22651;BME280;11492;42.646;23.400;2023-05-10T01:17:56;95301.84;;;9.77;81.48
22651;BME280;11492;42.646;23.400;2023-05-10T01:20:22;95298.28;;;9.78;80.82
22651;BME280;11492;42.646;23.400;2023-05-10T01:22:59;95301.53;;;9.80;80.67
22651;BME280;11492;42.646;23.400;2023-05-10T01:28:57;95300.91;;;9.70;81.03
22651;BME280;11492;42.646;23.400;2023-05-10T01:33:57;95298.63;;;9.75;80.64
22651;BME280;11492;42.646;23.400;2023-05-10T01:36:31;95295.44;;;9.73;80.57
22651;BME280;11492;42.646;23.400;2023-05-10T01:39:25;95290.28;;;9.73;80.17
22651;BME280;11492;42.646;23.400;2023-05-10T01:44:38;95293.47;;;9.75;81.10
22651;BME280;11492;42.646;23.400;2023-05-10T01:47:38;95288.31;;;9.75;80.78
22651;BME280;11492;42.646;23.400;2023-05-10T01:50:18;95283.78;;;9.77;80.79
22651;BME280;11492;42.646;23.400;2023-05-10T01:52:53;95279.28;;;9.79;79.69
22651;BME280;11492;42.646;23.400;2023-05-10T01:55:21;95273.84;;;9.66;78.90
22651;BME280;11492;42.646;23.400;2023-05-10T01:57:52;95240.75;;;9.40;79.00
22651;BME280;11492;42.646;23.400;2023-05-10T02:00:22;95278.81;;;9.68;78.59
22651;BME280;11492;42.646;23.400;2023-05-10T02:02:49;95282.56;;;9.65;78.86
22651;BME280;11492;42.646;23.400;2023-05-10T02:05:16;95290.91;;;9.67;79.25
22651;BME280;11492;42.646;23.400;2023-05-10T02:07:43;95293.19;;;9.62;79.00
22651;BME280;11492;42.646;23.400;2023-05-10T02:10:10;95294.66;;;9.57;79.23
22651;BME280;11492;42.646;23.400;2023-05-10T02:12:41;95302.75;;;9.46;78.58
22651;BME280;11492;42.646;23.400;2023-05-10T02:15:07;95292.31;;;9.32;77.88
22651;BME280;11492;42.646;23.400;2023-05-10T02:17:35;95290.25;;;9.27;77.94
22651;BME280;11492;42.646;23.400;2023-05-10T02:20:03;95283.34;;;9.12;78.20
22651;BME280;11492;42.646;23.400;2023-05-10T02:22:30;95295.06;;;9.15;77.69
22651;BME280;11492;42.646;23.400;2023-05-10T02:24:58;95302.03;;;9.06;78.05
22651;BME280;11492;42.646;23.400;2023-05-10T02:27:25;95295.25;;;8.90;77.50
22651;BME280;11492;42.646;23.400;2023-05-10T02:29:53;95300.75;;;8.87;78.25
22651;BME280;11492;42.646;23.400;2023-05-10T02:32:19;95294.44;;;8.89;78.09
22651;BME280;11492;42.646;23.400;2023-05-10T02:34:46;95303.16;;;8.96;77.12
22651;BME280;11492;42.646;23.400;2023-05-10T02:37:18;95296.56;;;8.86;75.60
22651;BME280;11492;42.646;23.400;2023-05-10T02:39:47;95310.38;;;8.77;75.24
22651;BME280;11492;42.646;23.400;2023-05-10T02:42:27;95307.66;;;8.78;74.90
22651;BME280;11492;42.646;23.400;2023-05-10T02:44:59;95311.53;;;8.82;75.16
22651;BME280;11492;42.646;23.400;2023-05-10T02:47:25;95300.72;;;8.79;74.75
22651;BME280;11492;42.646;23.400;2023-05-10T02:49:51;95307.31;;;8.73;75.08
22651;BME280;11492;42.646;23.400;2023-05-10T02:52:21;95303.78;;;8.74;75.23
22651;BME280;11492;42.646;23.400;2023-05-10T02:54:50;95293.00;;;8.63;75.34
22651;BME280;11492;42.646;23.400;2023-05-10T02:57:21;95303.28;;;8.63;75.69
22651;BME280;11492;42.646;23.400;2023-05-10T02:59:48;95293.81;;;8.56;75.87
22651;BME280;11492;42.646;23.400;2023-05-10T03:02:14;95300.72;;;8.55;76.14
22651;BME280;11492;42.646;23.400;2023-05-10T03:04:39;95291.41;;;8.54;76.53
22651;BME280;11492;42.646;23.400;2023-05-10T03:07:05;95294.78;;;8.55;77.22
22651;BME280;11492;42.646;23.400;2023-05-10T03:09:31;95298.47;;;8.52;75.38
22651;BME280;11492;42.646;23.400;2023-05-10T03:12:18;95298.47;;;8.52;75.02
22651;BME280;11492;42.646;23.400;2023-05-10T03:20:04;95307.16;;;8.67;76.13
22651;BME280;11492;42.646;23.400;2023-05-10T03:22:35;95311.34;;;8.60;74.54
22651;BME280;11492;42.646;23.400;2023-05-10T03:25:05;95311.00;;;8.63;74.51
22651;BME280;11492;42.646;23.400;2023-05-10T03:27:31;95310.53;;;8.68;74.33
22651;BME280;11492;42.646;23.400;2023-05-10T03:29:57;95317.47;;;8.59;73.99
22651;BME280;11492;42.646;23.400;2023-05-10T03:32:23;95317.78;;;8.64;74.84
22651;BME280;11492;42.646;23.400;2023-05-10T03:34:49;95313.91;;;8.68;74.39
22651;BME280;11492;42.646;23.400;2023-05-10T03:37:14;95313.13;;;8.68;74.17
22651;BME280;11492;42.646;23.400;2023-05-10T03:39:40;95307.97;;;8.68;73.53
22651;BME280;11492;42.646;23.400;2023-05-10T03:42:05;95305.22;;;8.69;74.49
22651;BME280;11492;42.646;23.400;2023-05-10T03:44:31;95311.50;;;8.74;73.13
22651;BME280;11492;42.646;23.400;2023-05-10T03:46:58;95314.25;;;8.81;73.32
22651;BME280;11492;42.646;23.400;2023-05-10T03:49:24;95308.94;;;8.74;72.80
22651;BME280;11492;42.646;23.400;2023-05-10T03:51:49;95304.59;;;8.67;72.71
22651;BME280;11492;42.646;23.400;2023-05-10T03:54:14;95311.19;;;8.62;72.83
22651;BME280;11492;42.646;23.400;2023-05-10T03:56:40;95315.19;;;8.56;72.80
22651;BME280;11492;42.646;23.400;2023-05-10T03:59:05;95312.97;;;8.61;72.53
22651;BME280;11492;42.646;23.400;2023-05-10T04:01:33;95323.25;;;8.69;72.63
22651;BME280;11492;42.646;23.400;2023-05-10T04:03:59;95303.31;;;9.02;80.50
22651;BME280;11492;42.646;23.400;2023-05-10T04:06:24;95317.03;;;9.56;78.26
22651;BME280;11492;42.646;23.400;2023-05-10T04:08:50;95319.63;;;9.64;71.40
22651;BME280;11492;42.646;23.400;2023-05-10T04:11:15;95320.94;;;9.45;69.84
22651;BME280;11492;42.646;23.400;2023-05-10T04:13:41;95338.50;;;9.49;73.23
22651;BME280;11492;42.646;23.400;2023-05-10T04:16:08;95327.94;;;9.90;72.94
22651;BME280;11492;42.646;23.400;2023-05-10T04:18:34;95317.22;;;10.08;69.66
22651;BME280;11492;42.646;23.400;2023-05-10T04:20:59;95333.38;;;10.32;69.28
22651;BME280;11492;42.646;23.400;2023-05-10T04:23:25;95322.84;;;10.12;66.61
22651;BME280;11492;42.646;23.400;2023-05-10T04:25:51;95320.56;;;9.71;67.26
22651;BME280;11492;42.646;23.400;2023-05-10T04:28:16;95318.50;;;9.51;69.16
22651;BME280;11492;42.646;23.400;2023-05-10T04:30:41;95330.94;;;9.47;68.85
22651;BME280;11492;42.646;23.400;2023-05-10T04:33:07;95331.59;;;9.34;70.40
22651;BME280;11492;42.646;23.400;2023-05-10T04:35:32;95340.78;;;9.20;69.96
22651;BME280;11492;42.646;23.400;2023-05-10T04:37:59;95333.88;;;9.05;70.91
22651;BME280;11492;42.646;23.400;2023-05-10T04:40:24;95338.88;;;9.07;71.03
22651;BME280;11492;42.646;23.400;2023-05-10T04:42:50;95328.91;;;8.96;71.75
22651;BME280;11492;42.646;23.400;2023-05-10T04:45:16;95332.91;;;8.98;72.31
22651;BME280;11492;42.646;23.400;2023-05-10T04:47:42;95331.81;;;9.01;73.98
22651;BME280;11492;42.646;23.400;2023-05-10T04:50:07;95330.47;;;9.44;74.32
22651;BME280;11492;42.646;23.400;2023-05-10T04:52:33;95328.94;;;9.89;72.86
22651;BME280;11492;42.646;23.400;2023-05-10T04:54:58;95327.81;;;10.21;70.60
22651;BME280;11492;42.646;23.400;2023-05-10T04:57:24;95329.16;;;10.39;68.35
22651;BME280;11492;42.646;23.400;2023-05-10T04:59:49;95329.56;;;10.50;67.91
22651;BME280;11492;42.646;23.400;2023-05-10T05:02:15;95323.94;;;10.25;67.26
22651;BME280;11492;42.646;23.400;2023-05-10T05:04:40;95335.31;;;10.00;68.87
22651;BME280;11492;42.646;23.400;2023-05-10T05:07:06;95327.88;;;10.05;70.90
22651;BME280;11492;42.646;23.400;2023-05-10T05:09:31;95328.91;;;10.26;70.08
22651;BME280;11492;42.646;23.400;2023-05-10T05:11:59;95313.00;;;10.15;68.44
22651;BME280;11492;42.646;23.400;2023-05-10T05:14:25;95334.38;;;9.94;68.39
22651;BME280;11492;42.646;23.400;2023-05-10T05:16:51;95326.69;;;9.70;69.95
22651;BME280;11492;42.646;23.400;2023-05-10T05:19:17;95336.72;;;9.49;70.88
22651;BME280;11492;42.646;23.400;2023-05-10T05:21:42;95319.56;;;9.26;71.33
22651;BME280;11492;42.646;23.400;2023-05-10T05:24:08;95331.13;;;9.22;72.31
22651;BME280;11492;42.646;23.400;2023-05-10T05:26:34;95345.63;;;9.16;73.17
22651;BME280;11492;42.646;23.400;2023-05-10T05:28:59;95340.47;;;9.00;72.87
22651;BME280;11492;42.646;23.400;2023-05-10T05:31:24;95328.09;;;8.88;73.79
22651;BME280;11492;42.646;23.400;2023-05-10T05:33:50;95337.09;;;8.84;73.41
22651;BME280;11492;42.646;23.400;2023-05-10T05:36:15;95352.56;;;8.92;74.35
22651;BME280;11492;42.646;23.400;2023-05-10T05:38:41;95349.00;;;8.93;74.91
22651;BME280;11492;42.646;23.400;2023-05-10T05:41:06;95356.25;;;8.97;74.74
22651;BME280;11492;42.646;23.400;2023-05-10T05:43:31;95353.69;;;8.97;74.74
22651;BME280;11492;42.646;23.400;2023-05-10T05:45:57;95342.25;;;8.84;74.74
22651;BME280;11492;42.646;23.400;2023-05-10T05:48:25;95351.41;;;8.94;75.09
22651;BME280;11492;42.646;23.400;2023-05-10T05:50:54;95345.63;;;8.84;75.21
22651;BME280;11492;42.646;23.400;2023-05-10T05:53:21;95360.44;;;8.90;75.30
22651;BME280;11492;42.646;23.400;2023-05-10T05:55:57;95360.59;;;8.89;75.19
22651;BME280;11492;42.646;23.400;2023-05-10T05:58:24;95359.97;;;8.87;75.24
22651;BME280;11492;42.646;23.400;2023-05-10T06:00:50;95366.06;;;8.86;75.52
22651;BME280;11492;42.646;23.400;2023-05-10T06:03:17;95368.81;;;8.92;75.50
22651;BME280;11492;42.646;23.400;2023-05-10T06:05:43;95365.75;;;8.96;76.27
22651;BME280;11492;42.646;23.400;2023-05-10T06:08:09;95362.22;;;8.97;75.96
22651;BME280;11492;42.646;23.400;2023-05-10T06:10:34;95359.47;;;8.99;75.69
22651;BME280;11492;42.646;23.400;2023-05-10T06:13:00;95369.91;;;9.05;75.91
22651;BME280;11492;42.646;23.400;2023-05-10T06:15:25;95365.59;;;9.06;75.87
22651;BME280;11492;42.646;23.400;2023-05-10T06:17:51;95353.69;;;9.13;75.89
22651;BME280;11492;42.646;23.400;2023-05-10T06:20:16;95355.75;;;9.09;74.71
22651;BME280;11492;42.646;23.400;2023-05-10T06:22:42;95361.72;;;9.10;74.86
22651;BME280;11492;42.646;23.400;2023-05-10T06:25:08;95372.19;;;9.08;75.15
22651;BME280;11492;42.646;23.400;2023-05-10T06:27:34;95375.72;;;9.07;74.86
22651;BME280;11492;42.646;23.400;2023-05-10T06:30:00;95368.50;;;9.03;74.58
22651;BME280;11492;42.646;23.400;2023-05-10T06:32:25;95375.72;;;9.07;74.77
22651;BME280;11492;42.646;23.400;2023-05-10T06:34:50;95381.03;;;9.14;75.06
22651;BME280;11492;42.646;23.400;2023-05-10T06:37:16;95380.22;;;9.05;74.11
22651;BME280;11492;42.646;23.400;2023-05-10T06:39:41;95390.53;;;9.13;73.54
22651;BME280;11492;42.646;23.400;2023-05-10T06:42:08;95382.81;;;9.13;73.01
22651;BME280;11492;42.646;23.400;2023-05-10T06:44:33;95377.50;;;9.07;73.49
22651;BME280;11492;42.646;23.400;2023-05-10T06:46:58;95381.38;;;9.03;73.41
22651;BME280;11492;42.646;23.400;2023-05-10T06:49:24;95371.06;;;9.03;72.92
22651;BME280;11492;42.646;23.400;2023-05-10T06:51:49;95364.47;;;9.00;72.58
22651;BME280;11492;42.646;23.400;2023-05-10T06:54:15;95368.50;;;9.11;73.25
22651;BME280;11492;42.646;23.400;2023-05-10T06:56:40;95381.69;;;9.16;72.36
22651;BME280;11492;42.646;23.400;2023-05-10T06:59:06;95375.06;;;9.21;72.60
22651;BME280;11492;42.646;23.400;2023-05-10T07:01:31;95377.97;;;9.26;72.24
22651;BME280;11492;42.646;23.400;2023-05-10T07:03:57;95373.16;;;9.23;71.73
22651;BME280;11492;42.646;23.400;2023-05-10T07:06:22;95377.34;;;9.24;71.73
22651;BME280;11492;42.646;23.400;2023-05-10T07:08:48;95380.22;;;9.21;70.64
22651;BME280;11492;42.646;23.400;2023-05-10T07:11:13;95387.66;;;9.16;70.49
22651;BME280;11492;42.646;23.400;2023-05-10T07:13:38;95388.78;;;9.14;70.40
22651;BME280;11492;42.646;23.400;2023-05-10T07:16:06;95370.25;;;9.10;70.90
22651;BME280;11492;42.646;23.400;2023-05-10T07:18:32;95381.06;;;9.21;70.80
22651;BME280;11492;42.646;23.400;2023-05-10T07:20:58;95380.88;;;9.31;71.02
22651;BME280;11492;42.646;23.400;2023-05-10T07:23:23;95383.63;;;9.37;70.71
22651;BME280;11492;42.646;23.400;2023-05-10T07:25:50;95381.84;;;9.38;70.22
22651;BME280;11492;42.646;23.400;2023-05-10T07:28:17;95379.25;;;9.30;69.42
22651;BME280;11492;42.646;23.400;2023-05-10T07:30:43;95380.41;;;9.27;69.64
22651;BME280;11492;42.646;23.400;2023-05-10T07:33:10;95395.69;;;9.37;70.25
22651;BME280;11492;42.646;23.400;2023-05-10T07:35:36;95389.75;;;9.28;69.34
22651;BME280;11492;42.646;23.400;2023-05-10T07:38:02;95394.41;;;9.33;69.73
22651;BME280;11492;42.646;23.400;2023-05-10T07:40:28;95393.25;;;9.35;69.79
22651;BME280;11492;42.646;23.400;2023-05-10T07:42:54;95399.72;;;9.39;70.36
22651;BME280;11492;42.646;23.400;2023-05-10T07:45:19;95391.34;;;9.37;70.08
22651;BME280;11492;42.646;23.400;2023-05-10T07:47:45;95400.22;;;9.27;69.68
22651;BME280;11492;42.646;23.400;2023-05-10T07:50:10;95406.47;;;9.24;70.23
22651;BME280;11492;42.646;23.400;2023-05-10T07:52:36;95406.16;;;9.27;70.16
22651;BME280;11492;42.646;23.400;2023-05-10T07:55:01;95393.13;;;9.29;69.66
22651;BME280;11492;42.646;23.400;2023-05-10T07:57:27;95400.19;;;9.35;69.33
22651;BME280;11492;42.646;23.400;2023-05-10T07:59:52;95397.63;;;9.35;69.33
22651;BME280;11492;42.646;23.400;2023-05-10T08:02:18;95405.03;;;9.38;69.50
22651;BME280;11492;42.646;23.400;2023-05-10T08:04:43;95399.09;;;9.37;68.75
22651;BME280;11492;42.646;23.400;2023-05-10T08:07:09;95402.13;;;9.41;69.43
22651;BME280;11492;42.646;23.400;2023-05-10T08:09:34;95405.50;;;9.41;68.85
22651;BME280;11492;42.646;23.400;2023-05-10T08:12:00;95397.16;;;9.47;69.54
22651;BME280;11492;42.646;23.400;2023-05-10T08:14:28;95404.03;;;9.46;69.50
22651;BME280;11492;42.646;23.400;2023-05-10T08:16:54;95395.38;;;9.47;69.02
22651;BME280;11492;42.646;23.400;2023-05-10T08:19:19;95401.66;;;9.53;70.03
22651;BME280;11492;42.646;23.400;2023-05-10T08:21:46;95395.50;;;9.46;68.98
22651;BME280;11492;42.646;23.400;2023-05-10T08:24:12;95409.50;;;9.51;69.48
22651;BME280;11492;42.646;23.400;2023-05-10T08:26:38;95411.13;;;9.60;69.11
22651;BME280;11492;42.646;23.400;2023-05-10T08:29:03;95407.91;;;9.58;69.84
22651;BME280;11492;42.646;23.400;2023-05-10T08:31:29;95411.75;;;9.62;69.06
22651;BME280;11492;42.646;23.400;2023-05-10T08:33:55;95397.94;;;9.63;69.23
22651;BME280;11492;42.646;23.400;2023-05-10T08:36:20;95403.53;;;9.67;69.43
22651;BME280;11492;42.646;23.400;2023-05-10T08:38:50;95407.59;;;9.69;69.36
22651;BME280;11492;42.646;23.400;2023-05-10T08:41:19;95406.91;;;9.75;69.37
22651;BME280;11492;42.646;23.400;2023-05-10T08:43:46;95403.38;;;9.76;69.06
22651;BME280;11492;42.646;23.400;2023-05-10T08:46:16;95416.09;;;9.77;70.02
22651;BME280;11492;42.646;23.400;2023-05-10T08:48:45;95399.84;;;9.69;69.55
22651;BME280;11492;42.646;23.400;2023-05-10T08:51:15;95410.31;;;9.75;69.54
22651;BME280;11492;42.646;23.400;2023-05-10T08:53:42;95411.94;;;9.84;69.87
22651;BME280;11492;42.646;23.400;2023-05-10T08:56:08;95411.75;;;9.86;69.35
22651;BME280;11492;42.646;23.400;2023-05-10T08:58:33;95428.50;;;9.97;69.76
22651;BME280;11492;42.646;23.400;2023-05-10T09:00:59;95417.22;;;9.91;69.04
22651;BME280;11492;42.646;23.400;2023-05-10T09:03:26;95415.63;;;9.90;69.55
22651;BME280;11492;42.646;23.400;2023-05-10T09:05:51;95420.13;;;9.88;69.35
22651;BME280;11492;42.646;23.400;2023-05-10T09:08:17;95403.06;;;9.87;68.71
22651;BME280;11492;42.646;23.400;2023-05-10T09:10:44;95404.31;;;9.98;68.09
22651;BME280;11492;42.646;23.400;2023-05-10T09:13:14;95413.00;;;10.05;68.08
22651;BME280;11492;42.646;23.400;2023-05-10T09:15:40;95415.59;;;10.05;68.81
22651;BME280;11492;42.646;23.400;2023-05-10T09:18:06;95410.44;;;10.05;68.99
22651;BME280;11492;42.646;23.400;2023-05-10T09:20:32;95403.97;;;10.09;68.71
22651;BME280;11492;42.646;23.400;2023-05-10T09:22:57;95404.13;;;10.08;69.67
22651;BME280;11492;42.646;23.400;2023-05-10T09:25:23;95401.97;;;10.19;70.93
22651;BME280;11492;42.646;23.400;2023-05-10T09:27:48;95405.81;;;10.31;71.24
22651;BME280;11492;42.646;23.400;2023-05-10T09:30:18;95397.03;;;10.47;69.69
22651;BME280;11492;42.646;23.400;2023-05-10T09:32:48;95400.00;;;10.67;69.59
22651;BME280;11492;42.646;23.400;2023-05-10T09:35:24;95385.47;;;10.66;68.91
22651;BME280;11492;42.646;23.400;2023-05-10T09:37:54;95390.78;;;10.72;68.88
22651;BME280;11492;42.646;23.400;2023-05-10T09:40:24;95393.81;;;10.75;68.73
22651;BME280;11492;42.646;23.400;2023-05-10T09:43:02;95388.50;;;10.77;68.76
22651;BME280;11492;42.646;23.400;2023-05-10T09:45:32;95388.59;;;10.83;68.78
22651;BME280;11492;42.646;23.400;2023-05-10T09:47:59;95394.09;;;10.80;68.56
22651;BME280;11492;42.646;23.400;2023-05-10T09:50:26;95389.41;;;10.84;69.09
22651;BME280;11492;42.646;23.400;2023-05-10T09:55:38;95386.81;;;10.84;66.19
22651;BME280;11492;42.646;23.400;2023-05-10T09:58:04;95369.44;;;10.78;67.26
22651;BME280;11492;42.646;23.400;2023-05-10T10:00:38;95373.22;;;10.90;67.21
22651;BME280;11492;42.646;23.400;2023-05-10T10:03:05;95375.28;;;10.94;66.45
22651;BME280;11492;42.646;23.400;2023-05-10T10:05:32;95374.25;;;10.81;65.51
22651;BME280;11492;42.646;23.400;2023-05-10T10:07:59;95379.88;;;10.84;66.74
22651;BME280;11492;42.646;23.400;2023-05-10T10:10:25;95372.19;;;10.76;66.03
22651;BME280;11492;42.646;23.400;2023-05-10T10:12:52;95369.63;;;10.76;66.50
22651;BME280;11492;42.646;23.400;2023-05-10T10:15:17;95370.22;;;10.78;66.55
22651;BME280;11492;42.646;23.400;2023-05-10T10:17:43;95365.00;;;10.86;66.74
22651;BME280;11492;42.646;23.400;2023-05-10T10:20:09;95356.16;;;10.81;65.62
22651;BME280;11492;42.646;23.400;2023-05-10T10:22:36;95361.31;;;10.81;65.99
22651;BME280;11492;42.646;23.400;2023-05-10T10:25:02;95362.31;;;10.80;66.45
22651;BME280;11492;42.646;23.400;2023-05-10T10:35:32;95366.56;;;10.95;65.16
22651;BME280;11492;42.646;23.400;2023-05-10T10:37:58;95372.34;;;10.97;65.37
22651;BME280;11492;42.646;23.400;2023-05-10T10:40:24;95366.34;;;11.04;64.91
22651;BME280;11492;42.646;23.400;2023-05-10T10:42:51;95368.19;;;11.18;64.81
22651;BME280;11492;42.646;23.400;2023-05-10T10:45:17;95372.66;;;11.24;64.71
22651;BME280;11492;42.646;23.400;2023-05-10T10:47:43;95370.13;;;11.16;65.21
22651;BME280;11492;42.646;23.400;2023-05-10T10:50:10;95368.72;;;11.28;64.84
22651;BME280;11492;42.646;23.400;2023-05-10T10:52:42;95360.00;;;11.29;66.16
22651;BME280;11492;42.646;23.400;2023-05-10T11:00:30;95368.50;;;11.37;66.06
22651;BME280;11492;42.646;23.400;2023-05-10T11:03:06;95373.09;;;11.27;65.94
22651;BME280;11492;42.646;23.400;2023-05-10T11:08:26;95375.47;;;11.37;65.69
22651;BME280;11492;42.646;23.400;2023-05-10T11:11:04;95363.84;;;11.33;65.03
22651;BME280;11492;42.646;23.400;2023-05-10T11:13:41;95357.88;;;11.32;65.39
22651;BME280;11492;42.646;23.400;2023-05-10T11:19:09;95366.41;;;11.33;66.53
22651;BME280;11492;42.646;23.400;2023-05-10T11:21:47;95366.91;;;11.36;66.24
22651;BME280;11492;42.646;23.400;2023-05-10T11:24:26;95360.25;;;11.42;65.67
22651;BME280;11492;42.646;23.400;2023-05-10T11:26:53;95355.53;;;11.45;66.16
22651;BME280;11492;42.646;23.400;2023-05-10T11:29:18;95365.78;;;11.53;64.84
22651;BME280;11492;42.646;23.400;2023-05-10T11:31:44;95367.25;;;11.55;64.39
22651;BME280;11492;42.646;23.400;2023-05-10T11:34:11;95365.53;;;11.62;64.36
22651;BME280;11492;42.646;23.400;2023-05-10T11:36:36;95359.75;;;11.60;65.30
22651;BME280;11492;42.646;23.400;2023-05-10T11:39:03;95366.25;;;11.56;64.62
22651;BME280;11492;42.646;23.400;2023-05-10T11:41:30;95362.22;;;11.54;64.14
22651;BME280;11492;42.646;23.400;2023-05-10T11:43:57;95365.63;;;11.54;64.46
22651;BME280;11492;42.646;23.400;2023-05-10T11:46:24;95367.75;;;11.51;64.75
22651;BME280;11492;42.646;23.400;2023-05-10T11:48:52;95369.88;;;11.47;64.31
22651;BME280;11492;42.646;23.400;2023-05-10T11:51:22;95369.88;;;11.47;64.83
22651;BME280;11492;42.646;23.400;2023-05-10T11:53:49;95368.56;;;11.51;65.08
22651;BME280;11492;42.646;23.400;2023-05-10T11:56:16;95372.97;;;11.43;65.79
22651;BME280;11492;42.646;23.400;2023-05-10T11:58:41;95363.28;;;11.23;66.98
22651;BME280;11492;42.646;23.400;2023-05-10T12:01:07;95360.00;;;11.29;67.02
22651;BME280;11492;42.646;23.400;2023-05-10T12:03:34;95364.50;;;11.13;66.83
22651;BME280;11492;42.646;23.400;2023-05-10T12:06:00;95354.03;;;11.06;67.54
22651;BME280;11492;42.646;23.400;2023-05-10T12:08:28;95367.81;;;11.21;68.34
22651;BME280;11492;42.646;23.400;2023-05-10T12:11:04;95362.66;;;11.21;67.20
22651;BME280;11492;42.646;23.400;2023-05-10T12:13:30;95344.97;;;11.10;67.91
22651;BME280;11492;42.646;23.400;2023-05-10T12:15:58;95348.41;;;11.25;67.75
22651;BME280;11492;42.646;23.400;2023-05-10T12:18:30;95351.59;;;11.27;66.92
22651;BME280;11492;42.646;23.400;2023-05-10T12:21:03;95344.13;;;11.40;66.75
22651;BME280;11492;42.646;23.400;2023-05-10T12:23:28;95336.09;;;11.27;66.67
22651;BME280;11492;42.646;23.400;2023-05-10T12:26:02;95331.06;;;11.33;66.36
22651;BME280;11492;42.646;23.400;2023-05-10T12:28:30;95349.44;;;11.38;66.56
22651;BME280;11492;42.646;23.400;2023-05-10T12:30:57;95340.44;;;11.48;65.54
22651;BME280;11492;42.646;23.400;2023-05-10T12:33:23;95331.38;;;11.52;65.79
22651;BME280;11492;42.646;23.400;2023-05-10T12:35:51;95336.19;;;11.55;66.27
22651;BME280;11492;42.646;23.400;2023-05-10T12:38:35;95339.88;;;11.61;65.38
22651;BME280;11492;42.646;23.400;2023-05-10T12:41:05;95325.88;;;11.70;65.41
22651;BME280;11492;42.646;23.400;2023-05-10T12:43:32;95331.19;;;11.40;66.02
22651;BME280;11492;42.646;23.400;2023-05-10T12:45:57;95330.50;;;11.60;64.74
22651;BME280;11492;42.646;23.400;2023-05-10T12:48:23;95328.16;;;11.50;65.78
22651;BME280;11492;42.646;23.400;2023-05-10T12:50:49;95326.56;;;11.64;66.44
22651;BME280;11492;42.646;23.400;2023-05-10T12:53:14;95330.31;;;11.61;65.53
22651;BME280;11492;42.646;23.400;2023-05-10T12:55:46;95325.75;;;11.63;65.96
22651;BME280;11492;42.646;23.400;2023-05-10T12:58:12;95324.38;;;11.75;65.19
22651;BME280;11492;42.646;23.400;2023-05-10T13:00:37;95305.25;;;11.62;64.76
22651;BME280;11492;42.646;23.400;2023-05-10T13:03:04;95311.59;;;11.59;65.62
22651;BME280;11492;42.646;23.400;2023-05-10T13:05:33;95314.19;;;11.59;65.05
22651;BME280;11492;42.646;23.400;2023-05-10T13:07:59;95307.13;;;11.53;65.46
22651;BME280;11492;42.646;23.400;2023-05-10T13:10:25;95294.91;;;11.47;65.23
22651;BME280;11492;42.646;23.400;2023-05-10T13:12:51;95306.44;;;11.59;64.96
22651;BME280;11492;42.646;23.400;2023-05-10T13:15:16;95302.50;;;11.63;65.96
22651;BME280;11492;42.646;23.400;2023-05-10T13:17:42;95297.03;;;11.58;66.03
22651;BME280;11492;42.646;23.400;2023-05-10T13:20:08;95301.25;;;11.59;65.41
22651;BME280;11492;42.646;23.400;2023-05-10T13:22:35;95300.00;;;11.55;64.78
22651;BME280;11492;42.646;23.400;2023-05-10T13:25:01;95297.22;;;11.57;66.15
22651;BME280;11492;42.646;23.400;2023-05-10T13:27:26;95299.00;;;11.56;66.35
22651;BME280;11492;42.646;23.400;2023-05-10T13:29:51;95287.78;;;11.49;66.36
22651;BME280;11492;42.646;23.400;2023-05-10T13:32:17;95287.06;;;11.41;66.28